createdAt,value
2023-03-05T06:53:25.738Z,95.79
2023-03-05T06:55:53.488Z,94.90
2023-03-05T07:02:28.446Z,95.05
2023-03-05T07:32:13.982Z,93.32
2023-03-05T08:06:07.934Z,91.31
2023-03-05T08:08:37.715Z,90.65
2023-03-05T08:11:09.616Z,89.91
2023-03-05T08:13:36.980Z,87.92
2023-03-05T08:16:16.440Z,85.96
2023-03-05T08:18:43.651Z,86.09
2023-03-05T08:21:18.596Z,86.30
2023-03-05T08:23:46.223Z,86.61
2023-03-05T08:26:23.206Z,86.60
2023-03-05T08:28:50.859Z,85.60
2023-03-05T08:31:18.657Z,84.15
2023-03-05T08:33:46.702Z,83.64
2023-03-05T08:36:14.328Z,82.47
2023-03-05T08:38:42.131Z,82.21
2023-03-05T08:41:12.265Z,81.56
2023-03-05T08:43:40.404Z,82.06
2023-03-05T08:46:08.211Z,81.90
2023-03-05T08:48:36.344Z,82.67
2023-03-05T08:51:29.649Z,82.93
2023-03-05T08:53:57.940Z,83.08
2023-03-05T08:56:28.137Z,82.72
2023-03-05T08:58:56.240Z,81.90
2023-03-05T09:01:24.308Z,81.11
2023-03-05T09:03:51.898Z,80.45
2023-03-05T09:06:19.560Z,79.22
2023-03-05T09:08:47.078Z,78.55
2023-03-05T09:11:14.987Z,77.53
2023-03-05T09:13:42.524Z,76.80
2023-03-05T09:16:12.932Z,75.47
2023-03-05T09:18:40.793Z,75.62
2023-03-05T09:21:09.428Z,75.85
2023-03-05T09:23:39.501Z,75.34
2023-03-05T09:26:09.375Z,74.82
2023-03-05T09:28:37.426Z,73.36
2023-03-05T09:36:12.569Z,70.48
2023-03-05T09:38:45.744Z,69.56
2023-03-05T09:41:30.402Z,68.96
2023-03-05T09:44:36.887Z,68.75
2023-03-05T09:47:59.211Z,67.12
2023-03-05T11:47:23.785Z,45.94
2023-03-05T12:43:05.595Z,37.07
2023-03-05T13:02:22.886Z,35.21
2023-03-05T13:27:38.637Z,34.73
2023-03-05T13:30:07.676Z,34.05
2023-03-05T13:32:36.010Z,33.28
2023-03-05T13:35:03.579Z,33.77
2023-03-05T13:37:32.101Z,33.54
2023-03-05T13:40:14.717Z,32.96
2023-03-05T13:42:48.444Z,34.06
2023-03-05T13:49:22.908Z,34.14
2023-03-05T13:51:54.071Z,33.19
2023-03-05T13:54:20.924Z,32.77
2023-03-05T13:56:52.064Z,32.87
2023-03-05T13:59:21.493Z,32.15
2023-03-05T14:01:48.428Z,32.28
2023-03-05T14:04:15.670Z,32.93
2023-03-05T14:06:46.210Z,33.20
2023-03-05T14:09:43.925Z,33.08
2023-03-05T14:12:37.207Z,32.22
2023-03-05T14:15:17.162Z,33.00
2023-03-05T14:17:44.362Z,33.35
2023-03-05T14:20:14.813Z,33.60
2023-03-05T14:36:59.450Z,33.77
2023-03-05T14:39:46.793Z,33.74
2023-03-05T14:42:55.586Z,33.50
2023-03-05T14:45:26.369Z,32.98
2023-03-05T14:47:54.464Z,33.17
2023-03-05T14:50:24.471Z,33.35
2023-03-05T14:52:53.399Z,33.52
2023-03-05T14:55:23.008Z,33.55
2023-03-05T15:42:05.340Z,34.09
2023-03-05T15:44:34.300Z,33.14
2023-03-05T15:47:02.322Z,33.35
2023-03-05T15:49:30.311Z,32.59
2023-03-05T15:52:05.112Z,33.08
2023-03-05T15:54:32.790Z,34.28
2023-03-05T15:57:16.327Z,34.96
2023-03-05T15:59:46.296Z,35.70
2023-03-05T16:02:16.929Z,36.18
2023-03-05T16:04:44.636Z,36.87
2023-03-05T16:07:13.992Z,37.39
2023-03-05T16:09:43.452Z,37.78
2023-03-05T16:12:12.677Z,38.55
2023-03-05T16:14:40.146Z,39.32
2023-03-05T16:17:07.737Z,39.13
2023-03-05T16:19:35.505Z,39.44
2023-03-05T16:22:03.491Z,39.23
2023-03-05T16:24:33.280Z,39.74
2023-03-05T16:27:01.528Z,40.03
2023-03-05T16:29:30.832Z,39.72
2023-03-05T16:31:58.962Z,39.90
2023-03-05T16:34:30.902Z,39.65
2023-03-05T16:37:00.995Z,40.05
2023-03-05T16:39:29.568Z,40.81
2023-03-05T16:41:57.875Z,41.24
2023-03-05T16:44:26.374Z,42.01
2023-03-05T16:46:54.158Z,43.10
2023-03-05T16:49:21.873Z,44.29
2023-03-05T16:51:50.190Z,45.54
2023-03-05T16:54:17.687Z,46.00
2023-03-05T16:56:45.190Z,47.11
2023-03-05T16:59:13.756Z,47.81
2023-03-05T17:01:45.455Z,48.04
2023-03-05T17:04:16.487Z,48.87
2023-03-05T17:06:46.728Z,49.45
2023-03-05T17:09:14.897Z,49.96
2023-03-05T17:11:42.775Z,50.92
2023-03-05T17:14:11.076Z,50.77
2023-03-05T17:16:39.192Z,51.50
2023-03-05T17:19:08.890Z,51.77
2023-03-05T17:21:37.292Z,52.23
2023-03-05T17:24:05.951Z,52.74
2023-03-05T17:26:35.801Z,52.66
2023-03-05T17:29:04.436Z,53.48
2023-03-05T17:31:31.680Z,54.12
2023-03-05T17:33:59.669Z,54.47
2023-03-05T17:36:46.830Z,55.27
2023-03-05T17:39:14.462Z,55.39
2023-03-05T17:41:42.418Z,55.63
2023-03-05T17:44:10.309Z,56.25
2023-03-05T17:46:38.385Z,57.00
2023-03-05T17:49:06.372Z,57.56
2023-03-05T17:51:34.510Z,57.58
2023-03-05T17:54:02.115Z,57.88
2023-03-05T17:56:30.773Z,58.23
2023-03-05T17:58:58.794Z,58.64
2023-03-05T18:01:47.034Z,58.97
2023-03-05T18:04:15.474Z,59.09
2023-03-05T18:06:43.756Z,59.14
2023-03-05T18:09:11.895Z,58.92
2023-03-05T18:11:39.573Z,58.73
2023-03-05T18:14:07.153Z,58.80
2023-03-05T18:16:36.056Z,58.39
2023-03-05T18:19:03.516Z,58.39
2023-03-05T18:21:31.492Z,58.48
2023-03-05T18:23:59.547Z,58.50
2023-03-05T18:26:27.758Z,58.32
2023-03-05T18:28:55.800Z,58.24
2023-03-05T18:31:24.479Z,58.52
2023-03-05T18:33:52.195Z,58.54
2023-03-05T18:36:19.921Z,58.08
2023-03-05T18:38:47.903Z,58.39
2023-03-05T18:41:24.330Z,58.13
2023-03-05T18:43:54.796Z,58.43
2023-03-05T18:46:22.636Z,58.37
2023-03-05T18:48:49.878Z,58.73
2023-03-05T18:51:19.009Z,58.95
2023-03-05T18:53:47.022Z,59.04
2023-03-05T18:56:16.910Z,59.38
2023-03-05T18:58:45.513Z,59.38
2023-03-05T19:01:14.125Z,59.15
2023-03-05T19:03:42.210Z,59.07
2023-03-05T19:06:09.893Z,59.60
2023-03-05T19:08:37.971Z,60.65
2023-03-05T19:11:17.424Z,61.11
2023-03-05T19:13:49.232Z,61.40
2023-03-05T19:16:20.791Z,61.96
2023-03-05T19:19:19.932Z,62.49
2023-03-05T19:21:48.520Z,62.90
2023-03-05T19:24:16.383Z,63.22
2023-03-05T19:26:44.137Z,63.17
2023-03-05T19:29:11.492Z,64.04
2023-03-05T19:31:39.544Z,63.91
2023-03-05T19:34:07.313Z,63.86
2023-03-05T19:36:35.228Z,64.04
2023-03-05T19:39:07.942Z,64.33
2023-03-05T19:41:37.745Z,64.65
2023-03-05T19:44:05.878Z,64.69
2023-03-05T19:46:33.507Z,64.74
2023-03-05T19:49:01.292Z,65.10
2023-03-05T19:51:29.253Z,65.58
2023-03-05T19:53:57.477Z,65.94
2023-03-05T19:56:25.164Z,65.72
2023-03-05T19:58:53.182Z,65.74
2023-03-05T20:01:47.271Z,66.06
2023-03-05T20:04:17.021Z,66.43
2023-03-05T20:06:45.049Z,66.19
2023-03-05T20:09:12.374Z,66.64
2023-03-05T20:11:40.140Z,66.70
2023-03-05T20:14:07.989Z,66.57
2023-03-05T20:16:35.680Z,67.12
2023-03-05T20:19:04.402Z,66.77
2023-03-05T20:21:55.544Z,66.60
2023-03-05T20:24:23.622Z,67.51
2023-03-05T20:26:51.560Z,67.95
2023-03-05T20:29:19.276Z,68.51
2023-03-05T20:31:47.447Z,68.15
2023-03-05T20:34:16.236Z,68.64
2023-03-05T20:36:43.432Z,69.31
2023-03-05T21:31:14.395Z,75.60
2023-03-05T21:52:50.973Z,75.84
2023-03-05T22:02:27.325Z,76.14
2023-03-05T22:05:09.018Z,75.95
2023-03-05T22:07:59.820Z,76.35
2023-03-05T22:10:43.284Z,75.81
2023-03-05T22:13:26.937Z,76.28
